sensor_id;sensor_type;location;lat;lon;timestamp;P1;durP1;ratioP1;P2;durP2;ratioP2
71965;SDS011;59836;52.132;5.442;2022-08-21T00:00:22;6.10;;;3.35;;
71965;SDS011;59836;52.132;5.442;2022-08-21T00:02:52;7.13;;;3.63;;
71965;SDS011;59836;52.132;5.442;2022-08-21T00:05:23;6.70;;;3.37;;
71965;SDS011;59836;52.132;5.442;2022-08-21T00:07:51;4.80;;;3.55;;
71965;SDS011;59836;52.132;5.442;2022-08-21T00:10:18;8.02;;;3.65;;
71965;SDS011;59836;52.132;5.442;2022-08-21T00:13:00;4.78;;;3.67;;
71965;SDS011;59836;52.132;5.442;2022-08-21T00:15:28;3.60;;;3.17;;
71965;SDS011;59836;52.132;5.442;2022-08-21T00:20:58;4.82;;;3.08;;
71965;SDS011;59836;52.132;5.442;2022-08-21T00:23:25;6.40;;;3.72;;
71965;SDS011;59836;52.132;5.442;2022-08-21T00:25:51;7.15;;;3.38;;
71965;SDS011;59836;52.132;5.442;2022-08-21T00:28:26;5.25;;;3.42;;
71965;SDS011;59836;52.132;5.442;2022-08-21T00:30:52;6.53;;;3.53;;
71965;SDS011;59836;52.132;5.442;2022-08-21T00:33:24;7.72;;;3.40;;
71965;SDS011;59836;52.132;5.442;2022-08-21T00:38:46;6.03;;;3.08;;
71965;SDS011;59836;52.132;5.442;2022-08-21T00:41:19;5.45;;;3.45;;
71965;SDS011;59836;52.132;5.442;2022-08-21T00:44:18;6.33;;;3.30;;
71965;SDS011;59836;52.132;5.442;2022-08-21T00:46:46;7.20;;;2.75;;
71965;SDS011;59836;52.132;5.442;2022-08-21T00:49:13;5.43;;;3.58;;
71965;SDS011;59836;52.132;5.442;2022-08-21T00:54:42;4.63;;;3.42;;
71965;SDS011;59836;52.132;5.442;2022-08-21T00:57:17;7.03;;;3.60;;
71965;SDS011;59836;52.132;5.442;2022-08-21T00:59:52;6.38;;;3.42;;
71965;SDS011;59836;52.132;5.442;2022-08-21T01:02:23;7.05;;;3.90;;
71965;SDS011;59836;52.132;5.442;2022-08-21T01:04:51;8.35;;;3.50;;
71965;SDS011;59836;52.132;5.442;2022-08-21T01:07:21;7.68;;;3.85;;
71965;SDS011;59836;52.132;5.442;2022-08-21T01:10:02;5.50;;;3.43;;
71965;SDS011;59836;52.132;5.442;2022-08-21T01:12:41;5.13;;;3.65;;
71965;SDS011;59836;52.132;5.442;2022-08-21T01:15:17;7.35;;;3.90;;
71965;SDS011;59836;52.132;5.442;2022-08-21T01:20:29;5.10;;;3.80;;
71965;SDS011;59836;52.132;5.442;2022-08-21T01:22:58;4.60;;;3.63;;
71965;SDS011;59836;52.132;5.442;2022-08-21T01:25:25;5.18;;;3.42;;
71965;SDS011;59836;52.132;5.442;2022-08-21T01:27:53;5.80;;;4.10;;
71965;SDS011;59836;52.132;5.442;2022-08-21T01:30:22;6.32;;;3.92;;
71965;SDS011;59836;52.132;5.442;2022-08-21T01:32:51;8.15;;;4.15;;
71965;SDS011;59836;52.132;5.442;2022-08-21T01:35:20;7.13;;;3.60;;
71965;SDS011;59836;52.132;5.442;2022-08-21T01:37:51;8.50;;;4.03;;
71965;SDS011;59836;52.132;5.442;2022-08-21T01:40:19;6.35;;;4.20;;
71965;SDS011;59836;52.132;5.442;2022-08-21T01:42:47;6.03;;;4.13;;
71965;SDS011;59836;52.132;5.442;2022-08-21T01:45:15;8.45;;;3.88;;
71965;SDS011;59836;52.132;5.442;2022-08-21T01:47:42;9.23;;;4.30;;
71965;SDS011;59836;52.132;5.442;2022-08-21T01:50:18;8.00;;;4.30;;
71965;SDS011;59836;52.132;5.442;2022-08-21T01:52:46;6.88;;;4.68;;
71965;SDS011;59836;52.132;5.442;2022-08-21T01:55:13;6.43;;;3.70;;
71965;SDS011;59836;52.132;5.442;2022-08-21T01:57:42;7.00;;;3.92;;
71965;SDS011;59836;52.132;5.442;2022-08-21T02:00:09;6.33;;;3.40;;
71965;SDS011;59836;52.132;5.442;2022-08-21T02:05:37;6.70;;;4.00;;
71965;SDS011;59836;52.132;5.442;2022-08-21T02:08:09;7.38;;;3.67;;
71965;SDS011;59836;52.132;5.442;2022-08-21T02:10:35;5.78;;;3.85;;
71965;SDS011;59836;52.132;5.442;2022-08-21T02:13:02;5.10;;;3.30;;
71965;SDS011;59836;52.132;5.442;2022-08-21T02:15:31;4.38;;;3.40;;
71965;SDS011;59836;52.132;5.442;2022-08-21T02:17:58;6.63;;;3.60;;
71965;SDS011;59836;52.132;5.442;2022-08-21T02:20:30;6.05;;;3.63;;
71965;SDS011;59836;52.132;5.442;2022-08-21T02:22:58;6.82;;;4.03;;
71965;SDS011;59836;52.132;5.442;2022-08-21T02:25:25;6.77;;;3.90;;
71965;SDS011;59836;52.132;5.442;2022-08-21T02:27:56;5.53;;;3.30;;
71965;SDS011;59836;52.132;5.442;2022-08-21T02:30:25;5.63;;;4.03;;
71965;SDS011;59836;52.132;5.442;2022-08-21T02:33:13;6.40;;;4.00;;
71965;SDS011;59836;52.132;5.442;2022-08-21T02:35:41;8.10;;;4.38;;
71965;SDS011;59836;52.132;5.442;2022-08-21T02:38:23;8.77;;;3.90;;
71965;SDS011;59836;52.132;5.442;2022-08-21T02:40:51;9.10;;;4.13;;
71965;SDS011;59836;52.132;5.442;2022-08-21T02:43:25;8.73;;;4.30;;
71965;SDS011;59836;52.132;5.442;2022-08-21T02:48:41;7.32;;;4.07;;
71965;SDS011;59836;52.132;5.442;2022-08-21T02:54:05;6.68;;;3.92;;
71965;SDS011;59836;52.132;5.442;2022-08-21T02:56:37;8.27;;;4.72;;
71965;SDS011;59836;52.132;5.442;2022-08-21T02:59:03;8.20;;;4.13;;
71965;SDS011;59836;52.132;5.442;2022-08-21T03:01:30;7.15;;;4.68;;
71965;SDS011;59836;52.132;5.442;2022-08-21T03:06:36;6.97;;;4.32;;
71965;SDS011;59836;52.132;5.442;2022-08-21T03:09:09;6.10;;;4.57;;
71965;SDS011;59836;52.132;5.442;2022-08-21T03:11:47;6.68;;;4.00;;
71965;SDS011;59836;52.132;5.442;2022-08-21T03:14:16;9.02;;;4.50;;
71965;SDS011;59836;52.132;5.442;2022-08-21T03:16:44;7.37;;;4.17;;
71965;SDS011;59836;52.132;5.442;2022-08-21T03:19:17;6.53;;;4.32;;
71965;SDS011;59836;52.132;5.442;2022-08-21T03:21:43;7.07;;;3.85;;
71965;SDS011;59836;52.132;5.442;2022-08-21T03:24:10;8.45;;;4.82;;
71965;SDS011;59836;52.132;5.442;2022-08-21T03:26:37;7.85;;;4.47;;
71965;SDS011;59836;52.132;5.442;2022-08-21T03:29:06;7.63;;;4.60;;
71965;SDS011;59836;52.132;5.442;2022-08-21T03:31:34;6.63;;;4.50;;
71965;SDS011;59836;52.132;5.442;2022-08-21T03:34:03;7.00;;;5.00;;
71965;SDS011;59836;52.132;5.442;2022-08-21T03:36:29;7.10;;;4.57;;
71965;SDS011;59836;52.132;5.442;2022-08-21T03:38:55;7.07;;;4.53;;
71965;SDS011;59836;52.132;5.442;2022-08-21T03:41:24;8.43;;;4.37;;
71965;SDS011;59836;52.132;5.442;2022-08-21T03:46:22;8.75;;;4.43;;
71965;SDS011;59836;52.132;5.442;2022-08-21T03:48:48;7.15;;;4.47;;
71965;SDS011;59836;52.132;5.442;2022-08-21T03:51:23;8.05;;;4.43;;
71965;SDS011;59836;52.132;5.442;2022-08-21T03:54:02;6.97;;;4.47;;
71965;SDS011;59836;52.132;5.442;2022-08-21T03:56:30;7.15;;;4.30;;
71965;SDS011;59836;52.132;5.442;2022-08-21T03:58:56;7.20;;;4.60;;
71965;SDS011;59836;52.132;5.442;2022-08-21T04:01:23;7.35;;;5.03;;
71965;SDS011;59836;52.132;5.442;2022-08-21T04:03:58;7.07;;;4.43;;
71965;SDS011;59836;52.132;5.442;2022-08-21T04:06:25;8.10;;;4.50;;
71965;SDS011;59836;52.132;5.442;2022-08-21T04:08:52;9.38;;;4.57;;
71965;SDS011;59836;52.132;5.442;2022-08-21T04:11:33;7.93;;;4.85;;
71965;SDS011;59836;52.132;5.442;2022-08-21T04:14:01;7.57;;;4.28;;
71965;SDS011;59836;52.132;5.442;2022-08-21T04:16:28;10.02;;;4.93;;
71965;SDS011;59836;52.132;5.442;2022-08-21T04:21:49;8.20;;;4.88;;
71965;SDS011;59836;52.132;5.442;2022-08-21T04:24:17;7.78;;;4.75;;
71965;SDS011;59836;52.132;5.442;2022-08-21T04:26:45;8.48;;;4.80;;
71965;SDS011;59836;52.132;5.442;2022-08-21T04:29:11;9.90;;;5.00;;
71965;SDS011;59836;52.132;5.442;2022-08-21T04:31:38;10.40;;;4.90;;
71965;SDS011;59836;52.132;5.442;2022-08-21T04:34:11;7.85;;;4.97;;
71965;SDS011;59836;52.132;5.442;2022-08-21T04:39:33;8.48;;;4.53;;
71965;SDS011;59836;52.132;5.442;2022-08-21T04:42:00;8.02;;;5.53;;
71965;SDS011;59836;52.132;5.442;2022-08-21T04:44:28;11.93;;;4.77;;
71965;SDS011;59836;52.132;5.442;2022-08-21T04:46:54;6.38;;;4.90;;
71965;SDS011;59836;52.132;5.442;2022-08-21T04:52:40;9.60;;;4.78;;
71965;SDS011;59836;52.132;5.442;2022-08-21T04:55:07;10.40;;;5.47;;
71965;SDS011;59836;52.132;5.442;2022-08-21T04:57:42;12.80;;;5.60;;
71965;SDS011;59836;52.132;5.442;2022-08-21T05:00:16;8.73;;;5.28;;
71965;SDS011;59836;52.132;5.442;2022-08-21T05:02:45;8.93;;;5.03;;
71965;SDS011;59836;52.132;5.442;2022-08-21T05:05:24;8.55;;;4.45;;
71965;SDS011;59836;52.132;5.442;2022-08-21T05:10:25;11.17;;;5.77;;
71965;SDS011;59836;52.132;5.442;2022-08-21T05:12:51;8.55;;;5.57;;
71965;SDS011;59836;52.132;5.442;2022-08-21T05:15:18;10.55;;;6.00;;
71965;SDS011;59836;52.132;5.442;2022-08-21T05:20:43;9.38;;;5.25;;
71965;SDS011;59836;52.132;5.442;2022-08-21T05:23:12;12.87;;;5.80;;
71965;SDS011;59836;52.132;5.442;2022-08-21T05:25:43;9.52;;;5.80;;
71965;SDS011;59836;52.132;5.442;2022-08-21T05:31:00;12.93;;;5.95;;
71965;SDS011;59836;52.132;5.442;2022-08-21T05:33:42;9.60;;;5.75;;
71965;SDS011;59836;52.132;5.442;2022-08-21T05:36:09;10.93;;;5.73;;
71965;SDS011;59836;52.132;5.442;2022-08-21T05:43:46;8.95;;;5.45;;
71965;SDS011;59836;52.132;5.442;2022-08-21T05:46:27;9.75;;;5.30;;
71965;SDS011;59836;52.132;5.442;2022-08-21T05:48:54;9.73;;;5.63;;
71965;SDS011;59836;52.132;5.442;2022-08-21T05:51:23;8.98;;;5.43;;
71965;SDS011;59836;52.132;5.442;2022-08-21T05:57:10;9.27;;;4.90;;
71965;SDS011;59836;52.132;5.442;2022-08-21T05:59:36;11.00;;;5.63;;
71965;SDS011;59836;52.132;5.442;2022-08-21T06:08:36;8.60;;;5.10;;
71965;SDS011;59836;52.132;5.442;2022-08-21T06:11:03;9.25;;;5.15;;
71965;SDS011;59836;52.132;5.442;2022-08-21T06:13:35;12.77;;;5.65;;
71965;SDS011;59836;52.132;5.442;2022-08-21T06:16:11;10.53;;;5.17;;
71965;SDS011;59836;52.132;5.442;2022-08-21T06:18:59;9.90;;;6.07;;
71965;SDS011;59836;52.132;5.442;2022-08-21T06:21:28;9.75;;;5.60;;
71965;SDS011;59836;52.132;5.442;2022-08-21T06:23:54;11.57;;;5.63;;
71965;SDS011;59836;52.132;5.442;2022-08-21T06:26:21;10.73;;;5.43;;
71965;SDS011;59836;52.132;5.442;2022-08-21T06:28:52;8.73;;;5.50;;
71965;SDS011;59836;52.132;5.442;2022-08-21T06:31:21;11.68;;;5.05;;
71965;SDS011;59836;52.132;5.442;2022-08-21T06:34:02;10.32;;;5.55;;
71965;SDS011;59836;52.132;5.442;2022-08-21T06:36:29;8.70;;;4.35;;
71965;SDS011;59836;52.132;5.442;2022-08-21T06:38:56;7.82;;;4.97;;
71965;SDS011;59836;52.132;5.442;2022-08-21T06:43:54;12.20;;;5.40;;
71965;SDS011;59836;52.132;5.442;2022-08-21T06:46:25;11.93;;;4.95;;
71965;SDS011;59836;52.132;5.442;2022-08-21T06:48:53;11.00;;;5.38;;
71965;SDS011;59836;52.132;5.442;2022-08-21T06:51:20;10.43;;;4.80;;
71965;SDS011;59836;52.132;5.442;2022-08-21T06:53:48;10.50;;;4.60;;
71965;SDS011;59836;52.132;5.442;2022-08-21T06:56:15;10.98;;;5.20;;
71965;SDS011;59836;52.132;5.442;2022-08-21T06:58:41;11.02;;;5.05;;
71965;SDS011;59836;52.132;5.442;2022-08-21T07:01:08;9.38;;;4.22;;
71965;SDS011;59836;52.132;5.442;2022-08-21T07:03:37;12.32;;;4.80;;
71965;SDS011;59836;52.132;5.442;2022-08-21T07:06:09;13.57;;;4.43;;
71965;SDS011;59836;52.132;5.442;2022-08-21T07:08:37;9.57;;;4.22;;
71965;SDS011;59836;52.132;5.442;2022-08-21T07:11:07;15.73;;;4.72;;
71965;SDS011;59836;52.132;5.442;2022-08-21T07:13:37;12.93;;;4.53;;
71965;SDS011;59836;52.132;5.442;2022-08-21T07:16:03;13.45;;;4.43;;
71965;SDS011;59836;52.132;5.442;2022-08-21T07:18:30;10.83;;;4.80;;
71965;SDS011;59836;52.132;5.442;2022-08-21T07:20:57;8.93;;;4.38;;
71965;SDS011;59836;52.132;5.442;2022-08-21T07:23:30;9.27;;;4.15;;
71965;SDS011;59836;52.132;5.442;2022-08-21T07:25:59;12.27;;;4.15;;
71965;SDS011;59836;52.132;5.442;2022-08-21T07:28:28;12.10;;;4.00;;
71965;SDS011;59836;52.132;5.442;2022-08-21T07:30:57;9.63;;;3.67;;
71965;SDS011;59836;52.132;5.442;2022-08-21T07:33:26;11.38;;;4.38;;
71965;SDS011;59836;52.132;5.442;2022-08-21T07:35:54;9.30;;;4.03;;
71965;SDS011;59836;52.132;5.442;2022-08-21T07:38:21;11.30;;;4.40;;
71965;SDS011;59836;52.132;5.442;2022-08-21T07:40:49;11.90;;;4.32;;
71965;SDS011;59836;52.132;5.442;2022-08-21T07:43:18;9.70;;;4.23;;
71965;SDS011;59836;52.132;5.442;2022-08-21T07:45:57;11.52;;;3.80;;
71965;SDS011;59836;52.132;5.442;2022-08-21T07:48:23;6.60;;;4.00;;
71965;SDS011;59836;52.132;5.442;2022-08-21T07:50:50;13.27;;;4.57;;
71965;SDS011;59836;52.132;5.442;2022-08-21T07:53:18;8.43;;;3.95;;
71965;SDS011;59836;52.132;5.442;2022-08-21T07:55:44;13.37;;;3.67;;
71965;SDS011;59836;52.132;5.442;2022-08-21T07:58:11;9.80;;;3.80;;
71965;SDS011;59836;52.132;5.442;2022-08-21T08:00:37;12.20;;;3.70;;
71965;SDS011;59836;52.132;5.442;2022-08-21T08:03:04;8.80;;;4.10;;
71965;SDS011;59836;52.132;5.442;2022-08-21T08:05:34;9.05;;;3.78;;
71965;SDS011;59836;52.132;5.442;2022-08-21T08:08:03;9.93;;;3.90;;
71965;SDS011;59836;52.132;5.442;2022-08-21T08:10:31;10.00;;;3.08;;
71965;SDS011;59836;52.132;5.442;2022-08-21T08:13:00;6.72;;;2.92;;
71965;SDS011;59836;52.132;5.442;2022-08-21T08:15:27;6.85;;;3.00;;
71965;SDS011;59836;52.132;5.442;2022-08-21T08:17:58;8.75;;;3.60;;
71965;SDS011;59836;52.132;5.442;2022-08-21T08:20:39;10.80;;;3.40;;
71965;SDS011;59836;52.132;5.442;2022-08-21T08:23:09;11.07;;;3.95;;
71965;SDS011;59836;52.132;5.442;2022-08-21T08:25:37;12.73;;;3.47;;
71965;SDS011;59836;52.132;5.442;2022-08-21T08:28:04;8.57;;;2.95;;
71965;SDS011;59836;52.132;5.442;2022-08-21T08:30:55;7.57;;;3.13;;
71965;SDS011;59836;52.132;5.442;2022-08-21T08:33:35;7.83;;;3.20;;
71965;SDS011;59836;52.132;5.442;2022-08-21T08:36:02;7.97;;;3.17;;
71965;SDS011;59836;52.132;5.442;2022-08-21T08:38:33;15.05;;;3.60;;
71965;SDS011;59836;52.132;5.442;2022-08-21T08:41:07;7.53;;;3.20;;
71965;SDS011;59836;52.132;5.442;2022-08-21T08:49:15;7.82;;;3.08;;
71965;SDS011;59836;52.132;5.442;2022-08-21T08:52:02;9.35;;;2.97;;
71965;SDS011;59836;52.132;5.442;2022-08-21T08:54:41;13.93;;;3.15;;
71965;SDS011;59836;52.132;5.442;2022-08-21T08:57:17;6.07;;;2.45;;
71965;SDS011;59836;52.132;5.442;2022-08-21T09:02:28;7.55;;;2.60;;
71965;SDS011;59836;52.132;5.442;2022-08-21T09:05:08;10.00;;;2.58;;
71965;SDS011;59836;52.132;5.442;2022-08-21T09:10:57;8.45;;;2.83;;
71965;SDS011;59836;52.132;5.442;2022-08-21T09:13:39;6.53;;;2.93;;
71965;SDS011;59836;52.132;5.442;2022-08-21T09:16:12;6.40;;;1.98;;
71965;SDS011;59836;52.132;5.442;2022-08-21T09:27:10;7.77;;;2.07;;
71965;SDS011;59836;52.132;5.442;2022-08-21T09:29:40;7.82;;;2.13;;
71965;SDS011;59836;52.132;5.442;2022-08-21T09:32:21;7.68;;;2.40;;
71965;SDS011;59836;52.132;5.442;2022-08-21T09:37:54;5.68;;;2.50;;
71965;SDS011;59836;52.132;5.442;2022-08-21T09:43:16;6.93;;;1.90;;
71965;SDS011;59836;52.132;5.442;2022-08-21T09:45:45;7.80;;;2.10;;
71965;SDS011;59836;52.132;5.442;2022-08-21T09:48:14;7.40;;;2.58;;
71965;SDS011;59836;52.132;5.442;2022-08-21T09:50:45;9.30;;;2.13;;
71965;SDS011;59836;52.132;5.442;2022-08-21T09:53:18;7.97;;;1.80;;
71965;SDS011;59836;52.132;5.442;2022-08-21T09:55:56;6.97;;;1.95;;
71965;SDS011;59836;52.132;5.442;2022-08-21T09:58:47;8.70;;;1.98;;
71965;SDS011;59836;52.132;5.442;2022-08-21T10:01:16;6.63;;;1.60;;
71965;SDS011;59836;52.132;5.442;2022-08-21T10:03:49;7.80;;;2.53;;
71965;SDS011;59836;52.132;5.442;2022-08-21T10:06:27;4.27;;;1.53;;
71965;SDS011;59836;52.132;5.442;2022-08-21T10:09:06;4.15;;;1.92;;
71965;SDS011;59836;52.132;5.442;2022-08-21T10:11:45;6.25;;;1.60;;
71965;SDS011;59836;52.132;5.442;2022-08-21T10:17:21;6.65;;;2.08;;
71965;SDS011;59836;52.132;5.442;2022-08-21T10:20:11;4.63;;;1.47;;
71965;SDS011;59836;52.132;5.442;2022-08-21T10:28:50;7.95;;;2.05;;
71965;SDS011;59836;52.132;5.442;2022-08-21T10:31:43;7.50;;;1.90;;
71965;SDS011;59836;52.132;5.442;2022-08-21T10:45:57;9.73;;;1.80;;
71965;SDS011;59836;52.132;5.442;2022-08-21T10:49:12;6.47;;;1.53;;
71965;SDS011;59836;52.132;5.442;2022-08-21T10:57:03;8.80;;;1.65;;
71965;SDS011;59836;52.132;5.442;2022-08-21T10:59:44;6.95;;;1.88;;
71965;SDS011;59836;52.132;5.442;2022-08-21T11:05:33;3.17;;;1.15;;
71965;SDS011;59836;52.132;5.442;2022-08-21T11:08:30;5.55;;;1.55;;
71965;SDS011;59836;52.132;5.442;2022-08-21T11:10:43;4.45;;;1.80;;
71965;SDS011;59836;52.132;5.442;2022-08-21T11:24:49;4.68;;;1.48;;
71965;SDS011;59836;52.132;5.442;2022-08-21T11:27:30;6.95;;;1.63;;
71965;SDS011;59836;52.132;5.442;2022-08-21T11:30:02;7.30;;;1.13;;
71965;SDS011;59836;52.132;5.442;2022-08-21T11:32:38;5.32;;;1.38;;
71965;SDS011;59836;52.132;5.442;2022-08-21T11:35:11;5.68;;;1.90;;
71965;SDS011;59836;52.132;5.442;2022-08-21T11:51:05;4.18;;;1.65;;
71965;SDS011;59836;52.132;5.442;2022-08-21T11:56:32;6.47;;;1.60;;
71965;SDS011;59836;52.132;5.442;2022-08-21T11:59:09;4.25;;;1.70;;
71965;SDS011;59836;52.132;5.442;2022-08-21T12:01:43;4.70;;;1.90;;
71965;SDS011;59836;52.132;5.442;2022-08-21T12:04:31;5.05;;;1.50;;
71965;SDS011;59836;52.132;5.442;2022-08-21T12:09:58;5.17;;;1.77;;
71965;SDS011;59836;52.132;5.442;2022-08-21T12:12:27;4.22;;;1.77;;
71965;SDS011;59836;52.132;5.442;2022-08-21T12:15:15;6.25;;;2.20;;
71965;SDS011;59836;52.132;5.442;2022-08-21T12:17:59;3.67;;;1.63;;
71965;SDS011;59836;52.132;5.442;2022-08-21T12:23:12;6.30;;;2.20;;
71965;SDS011;59836;52.132;5.442;2022-08-21T12:26:18;6.13;;;2.20;;
71965;SDS011;59836;52.132;5.442;2022-08-21T12:28:50;7.80;;;2.70;;
71965;SDS011;59836;52.132;5.442;2022-08-21T12:31:18;6.93;;;2.70;;
71965;SDS011;59836;52.132;5.442;2022-08-21T12:33:49;5.07;;;2.45;;
71965;SDS011;59836;52.132;5.442;2022-08-21T12:38:59;6.25;;;2.35;;
71965;SDS011;59836;52.132;5.442;2022-08-21T12:44:46;5.18;;;2.17;;
71965;SDS011;59836;52.132;5.442;2022-08-21T12:47:27;6.32;;;2.25;;
71965;SDS011;59836;52.132;5.442;2022-08-21T12:50:08;5.77;;;1.63;;
71965;SDS011;59836;52.132;5.442;2022-08-21T12:52:57;5.22;;;2.25;;
71965;SDS011;59836;52.132;5.442;2022-08-21T12:55:45;4.75;;;1.80;;
71965;SDS011;59836;52.132;5.442;2022-08-21T12:58:18;3.88;;;1.55;;
71965;SDS011;59836;52.132;5.442;2022-08-21T13:00:54;3.63;;;1.67;;
71965;SDS011;59836;52.132;5.442;2022-08-21T13:03:36;4.13;;;1.50;;
71965;SDS011;59836;52.132;5.442;2022-08-21T13:06:04;4.45;;;1.48;;
71965;SDS011;59836;52.132;5.442;2022-08-21T13:08:36;6.07;;;1.50;;
71965;SDS011;59836;52.132;5.442;2022-08-21T13:11:14;5.53;;;1.85;;
71965;SDS011;59836;52.132;5.442;2022-08-21T13:14:03;3.40;;;1.80;;
71965;SDS011;59836;52.132;5.442;2022-08-21T13:16:30;3.00;;;1.43;;
71965;SDS011;59836;52.132;5.442;2022-08-21T13:22:02;4.38;;;1.80;;
71965;SDS011;59836;52.132;5.442;2022-08-21T13:24:49;4.45;;;1.77;;
71965;SDS011;59836;52.132;5.442;2022-08-21T13:32:37;3.90;;;1.48;;
71965;SDS011;59836;52.132;5.442;2022-08-21T13:35:25;7.03;;;2.15;;
71965;SDS011;59836;52.132;5.442;2022-08-21T13:37:56;6.85;;;2.05;;
71965;SDS011;59836;52.132;5.442;2022-08-21T13:40:29;4.97;;;1.90;;
71965;SDS011;59836;52.132;5.442;2022-08-21T13:42:59;4.17;;;1.70;;
71965;SDS011;59836;52.132;5.442;2022-08-21T13:45:29;4.13;;;1.70;;
71965;SDS011;59836;52.132;5.442;2022-08-21T13:47:59;3.45;;;1.55;;
71965;SDS011;59836;52.132;5.442;2022-08-21T13:50:32;5.30;;;1.95;;
71965;SDS011;59836;52.132;5.442;2022-08-21T13:53:05;5.90;;;2.00;;
71965;SDS011;59836;52.132;5.442;2022-08-21T13:55:36;8.00;;;2.20;;
71965;SDS011;59836;52.132;5.442;2022-08-21T13:58:24;6.30;;;2.08;;
71965;SDS011;59836;52.132;5.442;2022-08-21T14:07:20;4.75;;;1.80;;
71965;SDS011;59836;52.132;5.442;2022-08-21T14:09:55;4.67;;;1.97;;
71965;SDS011;59836;52.132;5.442;2022-08-21T14:12:26;6.60;;;1.98;;
71965;SDS011;59836;52.132;5.442;2022-08-21T14:17:39;4.45;;;1.83;;
71965;SDS011;59836;52.132;5.442;2022-08-21T14:20:10;4.70;;;2.10;;
71965;SDS011;59836;52.132;5.442;2022-08-21T14:22:54;3.40;;;1.63;;
71965;SDS011;59836;52.132;5.442;2022-08-21T14:28:02;5.78;;;2.15;;
71965;SDS011;59836;52.132;5.442;2022-08-21T14:30:37;4.88;;;1.73;;
71965;SDS011;59836;52.132;5.442;2022-08-21T14:33:09;4.00;;;1.70;;
71965;SDS011;59836;52.132;5.442;2022-08-21T14:35:39;7.63;;;2.17;;
71965;SDS011;59836;52.132;5.442;2022-08-21T14:38:19;5.38;;;1.95;;
71965;SDS011;59836;52.132;5.442;2022-08-21T14:40:51;5.00;;;1.95;;
71965;SDS011;59836;52.132;5.442;2022-08-21T14:43:19;6.75;;;1.77;;
71965;SDS011;59836;52.132;5.442;2022-08-21T14:45:46;3.92;;;2.00;;
71965;SDS011;59836;52.132;5.442;2022-08-21T14:51:15;5.53;;;1.80;;
71965;SDS011;59836;52.132;5.442;2022-08-21T14:53:41;4.13;;;2.30;;
71965;SDS011;59836;52.132;5.442;2022-08-21T14:56:08;3.90;;;1.75;;
71965;SDS011;59836;52.132;5.442;2022-08-21T14:58:42;5.70;;;1.83;;
71965;SDS011;59836;52.132;5.442;2022-08-21T15:01:21;4.57;;;2.03;;
71965;SDS011;59836;52.132;5.442;2022-08-21T15:03:59;6.43;;;2.15;;
71965;SDS011;59836;52.132;5.442;2022-08-21T15:06:32;3.95;;;1.92;;
71965;SDS011;59836;52.132;5.442;2022-08-21T15:08:59;5.80;;;2.00;;
71965;SDS011;59836;52.132;5.442;2022-08-21T15:11:40;10.13;;;2.00;;
71965;SDS011;59836;52.132;5.442;2022-08-21T15:14:09;7.27;;;2.03;;
71965;SDS011;59836;52.132;5.442;2022-08-21T15:16:40;4.88;;;1.65;;
71965;SDS011;59836;52.132;5.442;2022-08-21T15:19:06;5.50;;;2.08;;
71965;SDS011;59836;52.132;5.442;2022-08-21T15:21:32;6.85;;;1.85;;
71965;SDS011;59836;52.132;5.442;2022-08-21T15:23:59;2.90;;;1.90;;
71965;SDS011;59836;52.132;5.442;2022-08-21T15:26:25;7.30;;;1.93;;
71965;SDS011;59836;52.132;5.442;2022-08-21T15:29:05;4.38;;;1.65;;
71965;SDS011;59836;52.132;5.442;2022-08-21T15:34:16;6.18;;;2.03;;
71965;SDS011;59836;52.132;5.442;2022-08-21T15:39:35;7.10;;;2.07;;
71965;SDS011;59836;52.132;5.442;2022-08-21T15:45:19;5.82;;;1.98;;
71965;SDS011;59836;52.132;5.442;2022-08-21T15:50:21;4.95;;;2.17;;
71965;SDS011;59836;52.132;5.442;2022-08-21T15:52:49;4.53;;;1.93;;
71965;SDS011;59836;52.132;5.442;2022-08-21T15:55:15;4.22;;;1.50;;
71965;SDS011;59836;52.132;5.442;2022-08-21T15:57:43;4.03;;;2.20;;
71965;SDS011;59836;52.132;5.442;2022-08-21T16:00:28;4.85;;;2.22;;
71965;SDS011;59836;52.132;5.442;2022-08-21T16:03:03;6.60;;;1.75;;
71965;SDS011;59836;52.132;5.442;2022-08-21T16:05:33;4.63;;;1.90;;
71965;SDS011;59836;52.132;5.442;2022-08-21T16:07:59;6.18;;;1.85;;
71965;SDS011;59836;52.132;5.442;2022-08-21T16:10:38;4.68;;;1.70;;
71965;SDS011;59836;52.132;5.442;2022-08-21T16:13:15;5.88;;;1.50;;
71965;SDS011;59836;52.132;5.442;2022-08-21T16:15:51;5.00;;;2.00;;
71965;SDS011;59836;52.132;5.442;2022-08-21T16:18:25;5.10;;;1.50;;
71965;SDS011;59836;52.132;5.442;2022-08-21T16:20:53;4.93;;;1.95;;
71965;SDS011;59836;52.132;5.442;2022-08-21T16:23:20;6.75;;;1.90;;
71965;SDS011;59836;52.132;5.442;2022-08-21T16:25:53;5.30;;;2.10;;
71965;SDS011;59836;52.132;5.442;2022-08-21T16:28:19;4.80;;;2.08;;
71965;SDS011;59836;52.132;5.442;2022-08-21T16:30:49;6.37;;;1.60;;
71965;SDS011;59836;52.132;5.442;2022-08-21T16:36:01;4.35;;;1.65;;
71965;SDS011;59836;52.132;5.442;2022-08-21T16:41:17;7.10;;;2.17;;
71965;SDS011;59836;52.132;5.442;2022-08-21T16:44:00;5.33;;;1.80;;
71965;SDS011;59836;52.132;5.442;2022-08-21T16:46:28;4.10;;;1.65;;
71965;SDS011;59836;52.132;5.442;2022-08-21T16:49:04;4.88;;;1.48;;
71965;SDS011;59836;52.132;5.442;2022-08-21T16:51:40;6.43;;;1.55;;
71965;SDS011;59836;52.132;5.442;2022-08-21T16:54:09;5.03;;;2.00;;
71965;SDS011;59836;52.132;5.442;2022-08-21T16:56:36;4.23;;;1.53;;
71965;SDS011;59836;52.132;5.442;2022-08-21T16:59:06;6.72;;;1.80;;
71965;SDS011;59836;52.132;5.442;2022-08-21T17:04:22;6.63;;;1.70;;
71965;SDS011;59836;52.132;5.442;2022-08-21T17:07:11;3.22;;;1.60;;
71965;SDS011;59836;52.132;5.442;2022-08-21T17:09:38;4.80;;;1.60;;
71965;SDS011;59836;52.132;5.442;2022-08-21T17:12:06;4.90;;;2.30;;
71965;SDS011;59836;52.132;5.442;2022-08-21T17:14:45;7.28;;;1.70;;
71965;SDS011;59836;52.132;5.442;2022-08-21T17:17:12;4.00;;;1.50;;
71965;SDS011;59836;52.132;5.442;2022-08-21T17:19:39;3.92;;;1.42;;
71965;SDS011;59836;52.132;5.442;2022-08-21T17:22:11;5.90;;;1.43;;
71965;SDS011;59836;52.132;5.442;2022-08-21T17:27:40;6.25;;;1.85;;
71965;SDS011;59836;52.132;5.442;2022-08-21T17:30:09;5.40;;;1.48;;
71965;SDS011;59836;52.132;5.442;2022-08-21T17:32:50;3.75;;;1.48;;
71965;SDS011;59836;52.132;5.442;2022-08-21T17:35:19;5.20;;;1.27;;
71965;SDS011;59836;52.132;5.442;2022-08-21T17:40:50;5.50;;;1.95;;
71965;SDS011;59836;52.132;5.442;2022-08-21T17:46:06;4.57;;;1.95;;
71965;SDS011;59836;52.132;5.442;2022-08-21T17:48:33;6.10;;;1.30;;
71965;SDS011;59836;52.132;5.442;2022-08-21T17:51:00;6.05;;;1.65;;
71965;SDS011;59836;52.132;5.442;2022-08-21T17:53:50;4.45;;;1.75;;
71965;SDS011;59836;52.132;5.442;2022-08-21T17:56:18;5.45;;;1.67;;
71965;SDS011;59836;52.132;5.442;2022-08-21T17:58:48;4.15;;;1.77;;
71965;SDS011;59836;52.132;5.442;2022-08-21T18:07:17;4.88;;;1.40;;
71965;SDS011;59836;52.132;5.442;2022-08-21T18:09:58;4.18;;;1.20;;
71965;SDS011;59836;52.132;5.442;2022-08-21T18:12:31;4.43;;;1.52;;
71965;SDS011;59836;52.132;5.442;2022-08-21T18:14:59;4.60;;;1.23;;
71965;SDS011;59836;52.132;5.442;2022-08-21T18:17:29;2.95;;;1.33;;
71965;SDS011;59836;52.132;5.442;2022-08-21T18:19:58;4.68;;;1.40;;
71965;SDS011;59836;52.132;5.442;2022-08-21T18:22:25;3.88;;;1.30;;
71965;SDS011;59836;52.132;5.442;2022-08-21T18:24:52;4.45;;;1.50;;
71965;SDS011;59836;52.132;5.442;2022-08-21T18:31:14;6.93;;;1.55;;
71965;SDS011;59836;52.132;5.442;2022-08-21T18:33:41;4.13;;;1.58;;
71965;SDS011;59836;52.132;5.442;2022-08-21T18:36:39;3.70;;;1.38;;
71965;SDS011;59836;52.132;5.442;2022-08-21T18:39:05;5.75;;;2.03;;
71965;SDS011;59836;52.132;5.442;2022-08-21T18:41:52;3.67;;;1.33;;
71965;SDS011;59836;52.132;5.442;2022-08-21T18:44:20;4.55;;;1.55;;
71965;SDS011;59836;52.132;5.442;2022-08-21T18:47:02;4.80;;;1.75;;
71965;SDS011;59836;52.132;5.442;2022-08-21T18:53:20;5.20;;;1.80;;